TNCC/CUR METAR and TAF weather

Enter ICAO airport designator
Station Type Date Time Source
TNCC METAR 2019/07/17 13:00 UTC NOAA

TNCC 171300Z 10012KT 9999 NCD 29/23 Q1015 NOSIG


Station Type Date Time Source
TNCC Decoded METAR 2019/07/17 13:00 UTC NOAA

Hato Airport, Curacao, Netherlands Antilles (TNCC) 12-12N 068-58W 67M
Jul 17, 2019 - 09:00 AM EDT / 2019.07.17 1300 UTC
Wind: from the E (100 degrees) at 14 MPH (12 KT):0
Visibility: greater than 7 mile(s):0
Temperature: 84 F (29 C)
Dew Point: 73 F (23 C)
Relative Humidity: 70%
Pressure (altimeter): 29.97 in. Hg (1015 hPa)
ob: TNCC 171300Z 10012KT 9999 NCD 29/23 Q1015 NOSIG
cycle: 13

Station Type Date Time Source
TNCC TAF 2019/07/17 12:00 UTC NOAA

TAF TNCC 171000Z 1712/1812 11014KT 9999 SCT020=

Example: see airport list